createdAt,value
2022-08-16T00:00:20.262Z,21.91
2022-08-16T00:01:13.068Z,21.87
2022-08-16T00:02:12.866Z,21.87
2022-08-16T00:03:13.293Z,21.87
2022-08-16T00:04:11.063Z,21.84
2022-08-16T00:05:11.070Z,21.83
2022-08-16T00:06:11.068Z,21.71
2022-08-16T00:07:11.067Z,21.64
2022-08-16T00:08:11.067Z,21.63
2022-08-16T00:09:13.090Z,21.63
2022-08-16T00:10:20.860Z,21.65
2022-08-16T00:11:15.284Z,21.64
2022-08-16T00:12:11.068Z,21.65
2022-08-16T00:13:13.091Z,21.66
2022-08-16T00:14:12.068Z,21.65
2022-08-16T00:15:17.091Z,21.60
2022-08-16T00:17:00.776Z,21.59
2022-08-16T00:17:18.246Z,21.57
2022-08-16T00:18:13.086Z,21.58
2022-08-16T00:19:13.619Z,21.59
2022-08-16T00:20:12.402Z,21.59
2022-08-16T00:21:11.058Z,21.50
2022-08-16T00:22:13.439Z,21.37
2022-08-16T00:23:11.058Z,21.41
2022-08-16T00:24:11.560Z,21.36
2022-08-16T00:25:12.053Z,21.30
2022-08-16T00:26:35.652Z,21.29
2022-08-16T00:27:13.075Z,21.33
2022-08-16T00:28:11.172Z,21.29
2022-08-16T00:29:11.117Z,21.25
2022-08-16T00:30:25.036Z,21.28
2022-08-16T00:31:13.066Z,21.28
2022-08-16T00:32:11.211Z,21.29
2022-08-16T00:33:11.064Z,21.28
2022-08-16T00:34:18.137Z,21.28
2022-08-16T00:35:15.477Z,21.28
2022-08-16T00:36:11.066Z,21.29
2022-08-16T00:37:11.083Z,21.29
2022-08-16T00:38:40.941Z,21.27
2022-08-16T00:39:15.529Z,21.27
2022-08-16T00:40:34.467Z,21.26
2022-08-16T00:41:13.084Z,21.23
2022-08-16T00:42:11.059Z,21.23
2022-08-16T00:43:19.345Z,21.23
2022-08-16T00:44:15.057Z,21.23
2022-08-16T00:45:17.060Z,21.21
2022-08-16T00:46:33.067Z,21.19
2022-08-16T00:47:18.085Z,21.17
2022-08-16T00:48:30.745Z,21.17
2022-08-16T00:49:18.990Z,21.17
2022-08-16T00:50:13.071Z,21.15
2022-08-16T00:51:11.067Z,21.13
2022-08-16T00:52:29.220Z,21.13
2022-08-16T00:53:14.085Z,21.11
2022-08-16T00:54:11.660Z,21.11
2022-08-16T00:55:11.063Z,21.11
2022-08-16T00:56:12.063Z,21.12
2022-08-16T00:57:13.082Z,21.10
2022-08-16T00:58:13.246Z,21.07
2022-08-16T00:59:15.175Z,21.04
2022-08-16T01:00:11.064Z,21.03
2022-08-16T01:01:13.151Z,21.02
2022-08-16T01:02:30.275Z,21.03
2022-08-16T01:03:14.064Z,21.01
2022-08-16T01:04:28.923Z,20.95
2022-08-16T01:05:13.089Z,20.95
2022-08-16T01:06:39.984Z,20.90
2022-08-16T01:07:13.075Z,20.88
2022-08-16T01:08:34.845Z,20.87
2022-08-16T01:09:13.060Z,20.84
2022-08-16T01:10:16.114Z,20.81
2022-08-16T01:11:13.358Z,20.81
2022-08-16T01:12:11.071Z,20.77
2022-08-16T01:13:15.871Z,20.71
2022-08-16T01:14:20.119Z,20.72
2022-08-16T01:15:13.343Z,20.73
2022-08-16T01:16:19.962Z,20.71
2022-08-16T01:17:13.082Z,20.68
2022-08-16T01:18:39.918Z,20.66
2022-08-16T01:19:21.080Z,20.66
2022-08-16T01:20:24.010Z,20.65
2022-08-16T01:21:22.340Z,20.63
2022-08-16T01:22:49.905Z,20.59
2022-08-16T01:23:19.089Z,20.59
2022-08-16T01:24:51.688Z,20.58
2022-08-16T01:25:19.057Z,20.56
2022-08-16T01:26:34.081Z,20.54
2022-08-16T01:27:22.069Z,20.52
2022-08-16T01:28:19.688Z,20.47
2022-08-16T01:29:13.053Z,20.48
2022-08-16T01:30:19.308Z,20.50
2022-08-16T01:31:12.062Z,20.51
2022-08-16T01:32:11.053Z,20.48
2022-08-16T01:33:15.310Z,20.49
2022-08-16T01:34:22.997Z,20.46
2022-08-16T01:35:23.069Z,20.45
2022-08-16T01:36:12.411Z,20.45
2022-08-16T01:37:11.052Z,20.40
2022-08-16T01:38:19.436Z,20.42
2022-08-16T01:39:15.055Z,20.44
2022-08-16T01:40:11.054Z,20.42
2022-08-16T01:41:19.066Z,20.42
2022-08-16T01:42:12.967Z,20.38
2022-08-16T01:43:12.054Z,20.38
2022-08-16T01:44:11.056Z,20.36
2022-08-16T01:45:11.058Z,20.36
2022-08-16T01:46:29.815Z,20.36
2022-08-16T01:47:13.086Z,20.37
2022-08-16T01:48:19.764Z,20.36
2022-08-16T01:49:22.082Z,20.38
2022-08-16T01:50:43.556Z,20.36
2022-08-16T01:51:17.145Z,20.33
2022-08-16T01:52:28.006Z,20.32
2022-08-16T01:53:13.082Z,20.32
2022-08-16T01:54:11.059Z,20.33
2022-08-16T01:55:11.054Z,20.32
2022-08-16T01:56:23.545Z,20.28
2022-08-16T01:57:13.350Z,20.21
2022-08-16T01:58:12.341Z,20.20
2022-08-16T01:59:15.805Z,20.24
2022-08-16T02:00:19.419Z,20.25
2022-08-16T02:01:13.339Z,20.27
2022-08-16T02:02:22.273Z,20.29
2022-08-16T02:03:13.076Z,20.30
2022-08-16T02:04:11.627Z,20.29
2022-08-16T02:05:11.058Z,20.29
2022-08-16T02:06:11.060Z,20.28
2022-08-16T02:07:12.061Z,20.28
2022-08-16T02:08:33.605Z,20.26
2022-08-16T02:09:13.091Z,20.24
2022-08-16T02:10:11.069Z,20.23
2022-08-16T02:11:11.062Z,20.23
2022-08-16T02:12:51.629Z,20.21
2022-08-16T02:13:13.071Z,20.22
2022-08-16T02:14:18.134Z,20.20
2022-08-16T02:15:13.072Z,20.21
2022-08-16T02:16:18.330Z,20.21
2022-08-16T02:17:13.076Z,20.21
2022-08-16T02:18:12.580Z,20.18
2022-08-16T02:19:16.042Z,20.16
2022-08-16T02:20:13.074Z,20.12
2022-08-16T02:21:11.057Z,20.10
2022-08-16T02:22:34.217Z,20.08
2022-08-16T02:23:13.098Z,20.03
2022-08-16T02:24:17.572Z,20.01
2022-08-16T02:25:14.999Z,20.04
2022-08-16T02:26:11.057Z,20.04
2022-08-16T02:27:13.069Z,20.05
2022-08-16T02:28:11.060Z,20.03
2022-08-16T02:29:13.037Z,20.04
2022-08-16T02:30:35.824Z,20.04
2022-08-16T02:31:13.079Z,20.05
2022-08-16T02:32:49.877Z,20.04
2022-08-16T02:33:13.064Z,20.05
2022-08-16T02:34:11.058Z,20.04
2022-08-16T02:35:11.062Z,20.03
2022-08-16T02:36:14.509Z,20.01
2022-08-16T02:37:13.081Z,20.02
2022-08-16T02:38:13.078Z,20.01
2022-08-16T02:39:11.077Z,20.01
2022-08-16T02:40:11.066Z,19.97
2022-08-16T02:41:12.092Z,19.97
2022-08-16T02:42:11.062Z,19.93
2022-08-16T02:43:11.058Z,19.87
2022-08-16T02:44:13.602Z,19.85
2022-08-16T02:45:11.069Z,19.85
2022-08-16T02:46:11.096Z,19.81
2022-08-16T02:47:11.062Z,19.81
2022-08-16T02:48:28.554Z,19.74
2022-08-16T02:49:13.067Z,19.77
2022-08-16T02:50:55.187Z,19.76
2022-08-16T02:51:13.051Z,19.76
2022-08-16T02:52:11.073Z,19.74
2022-08-16T02:53:13.064Z,19.77
2022-08-16T02:54:11.060Z,19.78
2022-08-16T02:55:11.072Z,19.77
2022-08-16T02:56:11.069Z,19.78
2022-08-16T02:57:11.063Z,19.78
2022-08-16T02:58:11.058Z,19.78
2022-08-16T02:59:11.799Z,19.79
2022-08-16T03:00:33.800Z,19.80
2022-08-16T03:01:25.310Z,19.81
2022-08-16T03:02:13.123Z,19.78
2022-08-16T03:03:11.063Z,19.78
2022-08-16T03:04:41.499Z,19.79
2022-08-16T03:05:13.074Z,19.80
2022-08-16T03:06:41.565Z,19.72
2022-08-16T03:07:13.084Z,19.66
2022-08-16T03:08:51.897Z,19.62
2022-08-16T03:09:14.015Z,19.67
2022-08-16T03:10:11.068Z,19.65
2022-08-16T03:11:16.519Z,19.66
2022-08-16T03:12:16.290Z,19.63
2022-08-16T03:13:12.490Z,19.62
2022-08-16T03:14:11.577Z,19.62
2022-08-16T03:15:12.073Z,19.63
2022-08-16T03:16:32.802Z,19.66
2022-08-16T03:17:13.094Z,19.63
2022-08-16T03:18:12.622Z,19.66
2022-08-16T03:19:13.074Z,19.69
2022-08-16T03:20:11.894Z,19.68
2022-08-16T03:21:11.055Z,19.68
2022-08-16T03:22:11.057Z,19.69
2022-08-16T03:23:13.075Z,19.70
2022-08-16T03:24:28.110Z,19.70
2022-08-16T03:25:14.056Z,19.70
2022-08-16T03:26:11.058Z,19.69
2022-08-16T03:27:11.053Z,19.67
2022-08-16T03:28:11.070Z,19.66
2022-08-16T03:29:11.057Z,19.64
2022-08-16T03:30:15.264Z,19.63
2022-08-16T03:31:11.057Z,19.61
2022-08-16T03:32:11.059Z,19.58
2022-08-16T03:33:11.058Z,19.55
2022-08-16T03:34:11.060Z,19.50
2022-08-16T03:35:11.060Z,19.48
2022-08-16T03:36:30.284Z,19.45
2022-08-16T03:37:13.104Z,19.46
2022-08-16T03:38:33.427Z,19.47
2022-08-16T03:39:15.114Z,19.46
2022-08-16T03:40:23.213Z,19.47
2022-08-16T03:41:17.108Z,19.47
2022-08-16T03:42:20.480Z,19.41
2022-08-16T03:43:20.345Z,19.39
2022-08-16T03:44:13.069Z,19.34
2022-08-16T03:45:13.062Z,19.29
2022-08-16T03:46:11.060Z,19.17
2022-08-16T03:47:11.066Z,19.12
2022-08-16T03:48:15.105Z,19.17
2022-08-16T03:49:15.077Z,19.19
2022-08-16T03:50:26.146Z,19.20
2022-08-16T03:51:14.069Z,19.18
2022-08-16T03:52:11.058Z,19.21
2022-08-16T03:53:11.058Z,19.24
2022-08-16T03:54:12.343Z,19.25
2022-08-16T03:55:14.731Z,19.24
2022-08-16T03:56:20.007Z,19.23
2022-08-16T03:57:15.680Z,19.25
2022-08-16T03:58:11.070Z,19.27
2022-08-16T03:59:11.063Z,19.28
2022-08-16T04:00:20.632Z,19.30
2022-08-16T04:01:13.120Z,19.31
2022-08-16T04:02:22.283Z,19.31
2022-08-16T04:03:14.090Z,19.32
2022-08-16T04:04:11.062Z,19.33
2022-08-16T04:05:13.074Z,19.34
2022-08-16T04:06:11.072Z,19.33
2022-08-16T04:07:11.062Z,19.23
2022-08-16T04:08:23.666Z,19.25
2022-08-16T04:09:13.094Z,19.26
2022-08-16T04:10:36.351Z,19.26
2022-08-16T04:11:16.525Z,19.27
2022-08-16T04:12:54.536Z,19.27
2022-08-16T04:13:20.678Z,19.29
2022-08-16T04:14:30.862Z,19.27
2022-08-16T04:15:13.551Z,19.28
2022-08-16T04:16:26.633Z,19.27
2022-08-16T04:17:13.064Z,19.26
2022-08-16T04:18:11.066Z,19.25
2022-08-16T04:19:11.067Z,19.23
2022-08-16T04:20:13.175Z,19.25
2022-08-16T04:21:13.095Z,19.23
2022-08-16T04:22:13.075Z,19.24
2022-08-16T04:23:11.057Z,19.25
2022-08-16T04:24:11.056Z,19.21
2022-08-16T04:25:11.059Z,19.17
2022-08-16T04:26:17.027Z,19.17
2022-08-16T04:27:13.086Z,19.14
2022-08-16T04:28:51.769Z,19.13
2022-08-16T04:29:18.280Z,19.11
2022-08-16T04:30:14.070Z,19.07
2022-08-16T04:31:13.070Z,19.08
2022-08-16T04:32:11.061Z,19.07
2022-08-16T04:33:11.056Z,19.06
2022-08-16T04:34:11.059Z,19.08
2022-08-16T04:35:16.210Z,19.08
2022-08-16T04:36:11.058Z,19.06
2022-08-16T04:37:13.071Z,19.06
2022-08-16T04:38:21.132Z,19.05
2022-08-16T04:39:13.063Z,19.05
2022-08-16T04:40:11.096Z,19.03
2022-08-16T04:41:13.068Z,18.96
2022-08-16T04:42:11.758Z,18.95
2022-08-16T04:43:11.061Z,18.94
2022-08-16T04:44:32.614Z,18.92
2022-08-16T04:45:13.077Z,18.90
2022-08-16T04:47:00.095Z,18.87
2022-08-16T04:47:21.822Z,18.86
2022-08-16T04:48:21.685Z,18.86
2022-08-16T04:49:13.068Z,18.84
2022-08-16T04:50:18.189Z,18.85
2022-08-16T04:51:11.928Z,18.83
2022-08-16T04:52:33.134Z,18.83
2022-08-16T04:53:13.062Z,18.83
2022-08-16T04:54:11.064Z,18.83
2022-08-16T04:55:11.907Z,18.84
2022-08-16T04:56:11.830Z,18.85
2022-08-16T04:57:11.060Z,18.84
2022-08-16T04:58:44.058Z,18.81
2022-08-16T04:59:13.061Z,18.81
2022-08-16T05:00:30.798Z,18.82
2022-08-16T05:01:13.063Z,18.78
2022-08-16T05:02:42.231Z,18.79
2022-08-16T05:03:13.155Z,18.77
2022-08-16T05:04:19.763Z,18.76
2022-08-16T05:05:17.248Z,18.74
2022-08-16T05:06:11.066Z,18.75
2022-08-16T05:07:15.006Z,18.77
2022-08-16T05:08:28.176Z,18.78
2022-08-16T05:09:13.068Z,18.77
2022-08-16T05:10:19.997Z,18.79
2022-08-16T05:11:14.093Z,18.76
2022-08-16T05:12:11.294Z,18.75
2022-08-16T05:13:15.503Z,18.74
2022-08-16T05:14:11.069Z,18.69
2022-08-16T05:15:13.072Z,18.70
2022-08-16T05:16:11.883Z,18.71
2022-08-16T05:17:13.092Z,18.69
2022-08-16T05:18:15.967Z,18.69
2022-08-16T05:19:16.298Z,18.65
2022-08-16T05:20:39.552Z,18.61
2022-08-16T05:21:13.069Z,18.60
2022-08-16T05:22:18.044Z,18.57
2022-08-16T05:23:13.746Z,18.60
2022-08-16T05:24:11.096Z,18.57
2022-08-16T05:25:11.057Z,18.55
2022-08-16T05:26:20.023Z,18.58
2022-08-16T05:27:13.068Z,18.52
2022-08-16T05:28:11.058Z,18.57
2022-08-16T05:29:14.685Z,18.58
2022-08-16T05:30:35.792Z,18.59
2022-08-16T05:31:13.082Z,18.59
2022-08-16T05:32:32.257Z,18.63
2022-08-16T05:33:16.904Z,18.62
2022-08-16T05:34:20.043Z,18.65
2022-08-16T05:35:13.063Z,18.66
2022-08-16T05:36:14.574Z,18.65
2022-08-16T05:37:14.660Z,18.68
2022-08-16T05:38:32.354Z,18.66
2022-08-16T05:39:13.064Z,18.67
2022-08-16T05:40:13.183Z,18.68
2022-08-16T05:41:11.060Z,18.73
2022-08-16T05:42:11.062Z,18.76
2022-08-16T05:43:11.973Z,18.70
2022-08-16T05:44:24.134Z,18.73
2022-08-16T05:45:13.115Z,18.77
2022-08-16T05:46:31.023Z,18.78
2022-08-16T05:47:15.097Z,18.84
2022-08-16T05:48:11.061Z,18.87
2022-08-16T05:49:11.062Z,18.88
2022-08-16T05:50:19.240Z,18.87
2022-08-16T05:51:13.077Z,18.90
2022-08-16T05:52:13.649Z,18.93
2022-08-16T05:53:11.064Z,18.94
2022-08-16T05:54:11.582Z,18.96
2022-08-16T05:55:11.063Z,19.01
2022-08-16T05:56:11.063Z,19.05
2022-08-16T05:57:13.538Z,19.06
2022-08-16T05:58:20.032Z,19.08
2022-08-16T05:59:13.083Z,19.10
2022-08-16T06:00:11.067Z,19.13
2022-08-16T06:01:11.165Z,19.13
2022-08-16T06:02:11.070Z,19.13
2022-08-16T06:03:12.968Z,19.12
2022-08-16T06:04:13.062Z,19.15
2022-08-16T06:05:11.165Z,19.18
2022-08-16T06:06:11.065Z,19.22
2022-08-16T06:07:24.390Z,19.22
2022-08-16T06:08:32.005Z,19.23
2022-08-16T06:09:13.070Z,19.26
2022-08-16T06:10:11.066Z,19.25
2022-08-16T06:11:11.403Z,19.26
2022-08-16T06:12:11.063Z,19.27
2022-08-16T06:13:11.067Z,19.28
2022-08-16T06:14:11.064Z,19.34
2022-08-16T06:15:16.478Z,19.38
2022-08-16T06:16:18.201Z,19.42
2022-08-16T06:17:15.199Z,19.43
2022-08-16T06:18:11.072Z,19.47
2022-08-16T06:19:11.066Z,19.47
2022-08-16T06:20:11.070Z,19.50
2022-08-16T06:21:11.057Z,19.51
2022-08-16T06:22:11.059Z,19.49
2022-08-16T06:23:17.407Z,19.48
2022-08-16T06:24:54.671Z,19.48
2022-08-16T06:25:13.330Z,19.41
2022-08-16T06:26:11.060Z,19.42
2022-08-16T06:27:11.060Z,19.45
2022-08-16T06:28:17.034Z,19.49
2022-08-16T06:29:13.094Z,19.49
2022-08-16T06:30:11.067Z,19.54
2022-08-16T06:31:12.191Z,19.55
2022-08-16T06:32:11.071Z,19.55
2022-08-16T06:33:13.057Z,19.57
2022-08-16T06:34:53.212Z,19.58
2022-08-16T06:35:13.069Z,19.59
2022-08-16T06:36:14.113Z,19.53
2022-08-16T06:37:11.066Z,19.60
2022-08-16T06:38:34.103Z,19.61
2022-08-16T06:39:13.342Z,19.61
2022-08-16T06:40:13.088Z,19.62
2022-08-16T06:41:13.488Z,19.57
2022-08-16T06:42:11.060Z,19.53
2022-08-16T06:43:11.061Z,19.53
2022-08-16T06:44:20.649Z,19.57
2022-08-16T06:45:13.084Z,19.54
2022-08-16T06:46:15.063Z,19.52
2022-08-16T06:47:11.065Z,19.52
2022-08-16T06:48:13.078Z,19.53
2022-08-16T06:49:13.070Z,19.53
2022-08-16T06:50:11.058Z,19.57
2022-08-16T06:51:14.851Z,19.61
2022-08-16T06:52:57.299Z,19.54
2022-08-16T06:53:15.113Z,19.53
2022-08-16T06:54:13.929Z,19.54
2022-08-16T06:55:13.046Z,19.49
2022-08-16T06:56:14.747Z,19.43
2022-08-16T06:57:16.658Z,19.45
2022-08-16T06:58:21.949Z,19.46
2022-08-16T06:59:13.088Z,19.44
2022-08-16T07:00:24.678Z,19.44
2022-08-16T07:01:15.812Z,19.51
2022-08-16T07:02:33.342Z,19.48
2022-08-16T07:03:26.419Z,19.51
2022-08-16T07:04:13.070Z,19.52
2022-08-16T07:05:15.207Z,19.55
2022-08-16T07:06:11.453Z,19.60
2022-08-16T07:07:11.066Z,19.63
2022-08-16T07:08:11.417Z,19.63
2022-08-16T07:09:11.067Z,19.65
2022-08-16T07:10:11.073Z,19.66
2022-08-16T07:11:11.079Z,19.68
2022-08-16T07:12:11.068Z,19.71
2022-08-16T07:13:11.877Z,19.77
2022-08-16T07:14:24.222Z,19.82
2022-08-16T07:15:18.780Z,19.86
2022-08-16T07:16:14.093Z,19.92
2022-08-16T07:17:12.943Z,19.95
2022-08-16T07:18:11.066Z,19.98
2022-08-16T07:19:12.069Z,20.00
2022-08-16T07:20:30.741Z,19.95
2022-08-16T07:21:13.111Z,19.97
2022-08-16T07:22:37.425Z,20.01
2022-08-16T07:23:13.621Z,20.06
2022-08-16T07:24:11.067Z,20.09
2022-08-16T07:25:17.237Z,20.11
2022-08-16T07:26:14.421Z,20.12
2022-08-16T07:27:13.080Z,20.12
2022-08-16T07:28:20.907Z,20.16
2022-08-16T07:29:13.072Z,20.22
2022-08-16T07:30:39.396Z,20.21
2022-08-16T07:31:14.247Z,20.23
2022-08-16T07:32:11.062Z,20.26
2022-08-16T07:33:11.058Z,20.24
2022-08-16T07:34:13.109Z,20.29
2022-08-16T07:35:11.068Z,20.30
2022-08-16T07:36:11.065Z,20.35
2022-08-16T07:37:11.061Z,20.38
2022-08-16T07:38:11.068Z,20.34
2022-08-16T07:39:11.063Z,20.35
2022-08-16T07:40:12.792Z,20.36
2022-08-16T07:41:11.237Z,20.33
2022-08-16T07:42:11.071Z,20.33
2022-08-16T07:43:13.090Z,20.35
2022-08-16T07:44:16.578Z,20.36
2022-08-16T07:45:13.344Z,20.35
2022-08-16T07:46:37.762Z,20.41
2022-08-16T07:47:13.334Z,20.45
2022-08-16T07:48:12.503Z,20.45
2022-08-16T07:49:11.423Z,20.48
2022-08-16T07:50:57.807Z,20.49
2022-08-16T07:51:13.086Z,20.52
2022-08-16T07:52:18.666Z,20.50
2022-08-16T07:53:13.072Z,20.48
2022-08-16T07:54:20.604Z,20.49
2022-08-16T07:55:13.077Z,20.46
2022-08-16T07:56:11.071Z,20.53
2022-08-16T07:57:11.391Z,20.52
2022-08-16T07:58:11.061Z,20.56
2022-08-16T07:59:13.761Z,20.57
2022-08-16T08:00:18.487Z,20.60
2022-08-16T08:01:13.295Z,20.67
2022-08-16T08:02:11.902Z,20.65
2022-08-16T08:03:11.073Z,20.66
2022-08-16T08:04:13.056Z,20.72
2022-08-16T08:05:11.064Z,20.72
2022-08-16T08:06:11.881Z,20.77
2022-08-16T08:07:11.101Z,20.76
2022-08-16T08:08:11.631Z,20.74
2022-08-16T08:09:13.112Z,20.74
2022-08-16T08:10:11.688Z,20.75
2022-08-16T08:11:11.066Z,20.80
2022-08-16T08:12:32.335Z,20.81
2022-08-16T08:13:13.091Z,20.84
2022-08-16T08:14:11.069Z,20.82
2022-08-16T08:15:13.085Z,20.83
2022-08-16T08:16:19.054Z,20.82
2022-08-16T08:17:13.093Z,20.82
2022-08-16T08:18:29.198Z,20.90
2022-08-16T08:19:15.335Z,20.91
2022-08-16T08:20:12.076Z,20.92
2022-08-16T08:21:11.060Z,20.97
2022-08-16T08:22:19.462Z,21.03
2022-08-16T08:23:13.080Z,21.04
2022-08-16T08:24:11.061Z,21.09
2022-08-16T08:25:12.960Z,21.08
2022-08-16T08:26:17.691Z,21.09
2022-08-16T08:27:13.076Z,21.17
2022-08-16T08:28:13.064Z,21.19
2022-08-16T08:29:12.002Z,21.26
2022-08-16T08:30:51.832Z,21.31
2022-08-16T08:31:17.126Z,21.35
2022-08-16T08:32:58.663Z,21.37
2022-08-16T08:33:13.064Z,21.44
2022-08-16T08:34:12.768Z,21.49
2022-08-16T08:35:11.069Z,21.50
2022-08-16T08:36:11.059Z,21.49
2022-08-16T08:37:13.340Z,21.49
2022-08-16T08:38:13.064Z,21.55
2022-08-16T08:39:13.200Z,21.60
2022-08-16T08:40:11.129Z,21.59
2022-08-16T08:41:12.062Z,21.63
2022-08-16T08:42:11.064Z,21.64
2022-08-16T08:43:18.424Z,21.66
2022-08-16T08:44:29.228Z,21.68
2022-08-16T08:45:29.776Z,21.71
2022-08-16T08:46:18.083Z,21.71
2022-08-16T08:47:13.080Z,21.77
2022-08-16T08:48:11.065Z,21.68
2022-08-16T08:49:13.074Z,21.70
2022-08-16T08:50:11.064Z,21.70
2022-08-16T08:51:11.130Z,21.76
2022-08-16T08:52:11.066Z,21.79
2022-08-16T08:53:13.357Z,21.84
2022-08-16T08:54:11.064Z,21.78
2022-08-16T08:55:12.680Z,21.79
2022-08-16T08:56:23.104Z,21.75
2022-08-16T08:57:13.082Z,21.74
2022-08-16T08:58:11.067Z,21.78
2022-08-16T08:59:12.975Z,21.85
2022-08-16T09:00:17.172Z,21.91
2022-08-16T09:01:11.066Z,21.94
2022-08-16T09:02:12.065Z,21.99
2022-08-16T09:03:11.068Z,22.01
2022-08-16T09:04:14.738Z,21.95
2022-08-16T09:05:15.585Z,21.97
2022-08-16T09:06:11.073Z,22.04
2022-08-16T09:07:13.082Z,22.08
2022-08-16T09:08:11.065Z,22.10
2022-08-16T09:09:17.085Z,22.17
2022-08-16T09:10:20.695Z,22.20
2022-08-16T09:11:18.447Z,22.19
2022-08-16T09:12:36.358Z,22.17
2022-08-16T09:13:13.073Z,22.27
2022-08-16T09:14:23.899Z,22.29
2022-08-16T09:15:13.466Z,22.42
2022-08-16T09:16:11.064Z,22.44
2022-08-16T09:17:31.580Z,22.51
2022-08-16T09:18:26.470Z,22.55
2022-08-16T09:19:13.087Z,22.64
2022-08-16T09:20:11.066Z,22.63
2022-08-16T09:21:11.059Z,22.61
2022-08-16T09:22:19.911Z,22.59
2022-08-16T09:23:13.344Z,22.60
2022-08-16T09:24:13.078Z,22.56
2022-08-16T09:25:14.720Z,22.59
2022-08-16T09:26:44.107Z,22.56
2022-08-16T09:27:13.054Z,22.64
2022-08-16T09:28:11.060Z,22.66
2022-08-16T09:29:16.974Z,22.65
2022-08-16T09:30:33.642Z,22.63
2022-08-16T09:31:13.058Z,22.68
2022-08-16T09:32:11.058Z,22.74
2022-08-16T09:33:11.062Z,22.77
2022-08-16T09:34:12.218Z,22.83
2022-08-16T09:35:11.059Z,22.82
2022-08-16T09:36:12.212Z,22.87
2022-08-16T09:37:17.923Z,22.93
2022-08-16T09:38:13.060Z,22.96
2022-08-16T09:39:16.360Z,23.06
2022-08-16T09:40:31.888Z,23.10
2022-08-16T09:41:14.610Z,23.15
2022-08-16T09:42:11.062Z,23.18
2022-08-16T09:43:21.104Z,23.18
2022-08-16T09:45:12.576Z,23.19
2022-08-16T09:45:18.246Z,23.11
2022-08-16T09:46:45.128Z,23.21
2022-08-16T09:47:13.062Z,23.30
2022-08-16T09:48:11.063Z,23.43
2022-08-16T09:49:13.348Z,23.47
2022-08-16T09:50:14.175Z,23.62
2022-08-16T09:51:16.060Z,23.68
2022-08-16T09:52:11.064Z,23.69
2022-08-16T09:53:15.261Z,23.75
2022-08-16T09:54:16.676Z,23.83
2022-08-16T09:55:13.092Z,23.93
2022-08-16T09:56:19.065Z,23.91
2022-08-16T09:57:12.150Z,23.95
2022-08-16T09:58:12.319Z,23.94
2022-08-16T09:59:13.123Z,23.93
2022-08-16T10:00:43.932Z,23.96
2022-08-16T10:01:13.127Z,23.99
2022-08-16T10:02:26.439Z,24.05
2022-08-16T10:03:13.165Z,24.14
2022-08-16T10:04:30.327Z,24.16
2022-08-16T10:05:13.130Z,24.16
2022-08-16T10:06:11.366Z,24.10
2022-08-16T10:07:15.252Z,24.10
2022-08-16T10:08:26.550Z,24.14
2022-08-16T10:09:13.070Z,24.14
2022-08-16T10:10:11.789Z,24.13
2022-08-16T10:11:15.071Z,24.17
2022-08-16T10:12:19.606Z,24.14
2022-08-16T10:13:16.251Z,24.17
2022-08-16T10:14:11.070Z,24.20
2022-08-16T10:15:15.398Z,24.21
2022-08-16T10:17:11.068Z,24.18
2022-08-16T10:18:56.147Z,24.15
2022-08-16T10:19:13.323Z,24.02
2022-08-16T10:20:18.386Z,24.03
2022-08-16T10:21:13.070Z,24.01
2022-08-16T10:22:12.841Z,24.01
2022-08-16T10:23:16.999Z,23.99
2022-08-16T10:24:13.058Z,23.98
2022-08-16T10:27:16.985Z,23.92
2022-08-16T10:27:20.025Z,23.91
2022-08-16T10:27:25.344Z,23.90
2022-08-16T10:28:28.474Z,23.85
2022-08-16T10:29:13.060Z,23.83
2022-08-16T10:30:24.753Z,23.81
2022-08-16T10:31:16.902Z,23.74
2022-08-16T10:32:13.124Z,23.64
2022-08-16T10:33:13.057Z,23.62
2022-08-16T10:34:31.241Z,23.64
2022-08-16T10:35:13.344Z,23.59
2022-08-16T10:36:13.065Z,23.54
2022-08-16T10:37:13.077Z,23.62
2022-08-16T10:38:11.064Z,23.51
2022-08-16T10:39:13.071Z,23.55
2022-08-16T10:40:28.544Z,23.63
2022-08-16T10:41:16.123Z,23.68
2022-08-16T10:42:13.489Z,23.51
2022-08-16T10:43:16.714Z,23.59
2022-08-16T10:44:13.067Z,23.55
2022-08-16T10:45:11.062Z,23.53
2022-08-16T10:46:40.149Z,23.58
2022-08-16T10:47:13.086Z,23.62
2022-08-16T10:48:27.565Z,23.59
2022-08-16T10:49:13.081Z,23.60
2022-08-16T10:50:18.897Z,23.64
2022-08-16T10:51:13.078Z,23.60
2022-08-16T10:52:19.164Z,23.53
2022-08-16T10:53:13.082Z,23.51
2022-08-16T10:54:28.874Z,23.46
2022-08-16T10:55:44.581Z,23.52
2022-08-16T10:56:51.753Z,23.50
2022-08-16T10:57:13.082Z,23.45
2022-08-16T10:58:12.082Z,23.42
2022-08-16T10:59:45.102Z,23.43
2022-08-16T11:00:22.260Z,23.49
2022-08-16T11:01:39.995Z,23.55
2022-08-16T11:02:59.863Z,23.56
2022-08-16T11:03:42.218Z,23.61
2022-08-16T11:05:05.552Z,23.64
2022-08-16T11:05:14.140Z,23.69
2022-08-16T11:06:12.242Z,23.78
2022-08-16T11:08:13.116Z,23.90
2022-08-16T11:09:29.121Z,23.92
2022-08-16T11:10:21.257Z,23.91
2022-08-16T11:11:19.197Z,23.99
2022-08-16T11:12:13.953Z,24.07
2022-08-16T11:14:13.365Z,24.17
2022-08-16T11:15:12.204Z,24.16
2022-08-16T11:16:27.112Z,24.20
2022-08-16T11:17:13.082Z,24.23
2022-08-16T11:19:02.940Z,24.29
2022-08-16T11:19:13.688Z,24.35
2022-08-16T11:20:41.970Z,24.39
2022-08-16T11:21:28.958Z,24.40
2022-08-16T11:22:38.718Z,24.39
2022-08-16T11:23:13.056Z,24.42
2022-08-16T11:24:39.709Z,24.46
2022-08-16T11:25:17.495Z,24.46
2022-08-16T11:26:22.797Z,24.50
2022-08-16T11:27:19.830Z,24.54
2022-08-16T11:28:36.514Z,24.49
2022-08-16T11:29:14.236Z,24.48
2022-08-16T11:30:12.360Z,24.52
2022-08-16T11:31:13.527Z,24.55
2022-08-16T11:32:11.061Z,24.57
2022-08-16T11:33:11.065Z,24.55
2022-08-16T11:34:11.059Z,24.50
2022-08-16T11:35:14.713Z,24.47
2022-08-16T11:36:28.156Z,24.47
2022-08-16T11:37:27.185Z,24.49
2022-08-16T11:38:47.424Z,24.51
2022-08-16T11:39:13.080Z,24.56
2022-08-16T11:40:11.118Z,24.58
2022-08-16T11:41:11.061Z,24.61
2022-08-16T11:42:28.556Z,24.66
2022-08-16T11:43:13.081Z,24.70
2022-08-16T11:44:11.060Z,24.76
2022-08-16T11:45:13.336Z,24.71
2022-08-16T11:46:42.948Z,24.69
2022-08-16T11:47:13.078Z,24.72
2022-08-16T11:48:11.064Z,24.76
2022-08-16T11:49:13.678Z,24.78
2022-08-16T11:50:12.061Z,24.86
2022-08-16T11:51:11.061Z,24.93
2022-08-16T11:52:11.065Z,24.92
2022-08-16T11:53:11.064Z,24.94
2022-08-16T11:54:20.330Z,24.85
2022-08-16T11:55:14.083Z,24.90
2022-08-16T11:56:11.064Z,24.86
2022-08-16T11:57:11.063Z,24.93
2022-08-16T11:58:11.164Z,24.94
2022-08-16T11:59:11.072Z,24.99
2022-08-16T12:00:33.554Z,25.00
2022-08-16T12:01:13.360Z,25.02
2022-08-16T12:02:31.956Z,25.06
2022-08-16T12:03:13.068Z,25.11
2022-08-16T12:04:11.163Z,25.07
2022-08-16T12:05:11.065Z,25.15
2022-08-16T12:06:25.538Z,25.17
2022-08-16T12:07:13.087Z,25.19
2022-08-16T12:08:11.066Z,25.28
2022-08-16T12:09:11.073Z,25.31
2022-08-16T12:10:15.143Z,25.40
2022-08-16T12:11:11.066Z,25.47
2022-08-16T12:12:11.066Z,25.50
2022-08-16T12:13:11.069Z,25.54
2022-08-16T12:14:11.065Z,25.61
2022-08-16T12:15:11.069Z,25.67
2022-08-16T12:16:12.069Z,25.67
2022-08-16T12:17:13.111Z,25.68
2022-08-16T12:18:11.069Z,25.68
2022-08-16T12:19:13.751Z,25.71
2022-08-16T12:20:18.963Z,25.78
2022-08-16T12:21:13.058Z,25.80
2022-08-16T12:22:19.816Z,25.79
2022-08-16T12:23:13.085Z,25.78
2022-08-16T12:24:11.056Z,25.65
2022-08-16T12:25:12.062Z,25.64
2022-08-16T12:26:11.062Z,25.60
2022-08-16T12:27:11.099Z,25.59
2022-08-16T12:28:11.057Z,25.60
2022-08-16T12:29:11.061Z,25.56
2022-08-16T12:30:21.253Z,25.60
2022-08-16T12:31:13.092Z,25.63
2022-08-16T12:32:26.643Z,25.62
2022-08-16T12:33:14.082Z,25.65
2022-08-16T12:34:11.058Z,25.61
2022-08-16T12:35:14.064Z,25.58
2022-08-16T12:36:13.185Z,25.60
2022-08-16T12:37:11.062Z,25.58
2022-08-16T12:38:41.147Z,25.59
2022-08-16T12:39:13.073Z,25.61
2022-08-16T12:40:24.074Z,25.58
2022-08-16T12:41:13.126Z,25.65
2022-08-16T12:42:13.063Z,25.59
2022-08-16T12:43:12.064Z,25.63
2022-08-16T12:44:11.063Z,25.61
2022-08-16T12:45:16.077Z,25.60
2022-08-16T12:46:11.059Z,25.61
2022-08-16T12:47:15.074Z,25.58
2022-08-16T12:49:13.072Z,25.58
2022-08-16T12:50:14.885Z,25.57
2022-08-16T12:51:19.967Z,25.59
2022-08-16T12:52:32.588Z,25.52
2022-08-16T12:53:13.079Z,25.49
2022-08-16T12:54:11.067Z,25.48
2022-08-16T12:55:11.072Z,25.49
2022-08-16T12:56:11.067Z,25.51